createdAt,value
2022-09-17T00:00:37.385Z,0.70
2022-09-17T00:05:39.493Z,1.37
2022-09-17T00:10:43.814Z,1.03
2022-09-17T00:15:47.427Z,0.90
2022-09-17T00:20:49.065Z,1.07
2022-09-17T00:25:50.734Z,0.90
2022-09-17T00:30:53.787Z,1.20
2022-09-17T00:35:59.676Z,0.93
2022-09-17T00:41:02.892Z,1.00
2022-09-17T00:46:16.931Z,0.80
2022-09-17T00:51:23.255Z,1.10
2022-09-17T00:56:28.333Z,1.30
2022-09-17T01:01:32.432Z,0.90
2022-09-17T01:06:41.553Z,1.00
2022-09-17T01:11:57.468Z,0.90
2022-09-17T01:17:13.380Z,0.80
2022-09-17T01:22:20.521Z,1.20
2022-09-17T01:27:58.918Z,1.53
2022-09-17T01:33:12.709Z,1.70
2022-09-17T01:38:25.493Z,1.50
2022-09-17T01:43:34.393Z,1.60
2022-09-17T01:48:41.902Z,1.47
2022-09-17T01:53:48.902Z,1.50
2022-09-17T01:58:58.082Z,1.30
2022-09-17T02:04:08.007Z,1.90
2022-09-17T02:09:15.647Z,1.30
2022-09-17T02:14:21.917Z,1.40
2022-09-17T02:19:28.166Z,1.07
2022-09-17T02:24:37.811Z,1.50
2022-09-17T02:29:43.619Z,1.50
2022-09-17T02:34:46.814Z,1.57
2022-09-17T02:39:48.617Z,1.30
2022-09-17T02:45:03.230Z,1.30
2022-09-17T02:50:24.561Z,1.23
2022-09-17T02:55:35.955Z,1.17
2022-09-17T03:00:38.026Z,1.40
2022-09-17T03:05:42.841Z,1.03
2022-09-17T03:10:44.993Z,1.50
2022-09-17T03:15:46.682Z,1.33
2022-09-17T03:20:50.040Z,1.07
2022-09-17T03:25:51.711Z,1.00
2022-09-17T03:30:54.080Z,1.20
2022-09-17T03:35:57.311Z,1.33
2022-09-17T03:40:59.551Z,1.53
2022-09-17T03:46:01.614Z,1.60
2022-09-17T03:51:06.238Z,1.30
2022-09-17T03:56:08.270Z,0.90
2022-09-17T04:01:10.239Z,1.53
2022-09-17T04:06:13.234Z,1.30
2022-09-17T04:11:14.875Z,1.40
2022-09-17T04:16:16.587Z,1.23
2022-09-17T04:21:19.649Z,1.37
2022-09-17T04:26:21.454Z,1.27
2022-09-17T04:31:23.186Z,1.30
2022-09-17T04:36:26.197Z,1.37
2022-09-17T04:41:28.071Z,1.40
2022-09-17T04:46:30.031Z,1.73
2022-09-17T04:51:33.191Z,1.20
2022-09-17T04:56:34.858Z,1.00
2022-09-17T05:01:36.731Z,1.53
2022-09-17T05:06:39.808Z,1.10
2022-09-17T05:11:41.690Z,1.20
2022-09-17T05:16:43.398Z,1.10
2022-09-17T05:21:46.548Z,1.13
2022-09-17T05:26:48.216Z,1.33
2022-09-17T05:31:49.897Z,2.07
2022-09-17T05:36:52.966Z,1.90
2022-09-17T05:41:55.418Z,2.00
2022-09-17T05:46:57.860Z,2.37
2022-09-17T05:52:04.110Z,2.10
2022-09-17T05:57:05.957Z,2.10
2022-09-17T06:02:07.647Z,2.30
2022-09-17T06:07:10.644Z,2.37
2022-09-17T06:12:12.431Z,2.40
2022-09-17T06:17:16.185Z,2.27
2022-09-17T06:22:22.510Z,2.60
2022-09-17T06:27:24.128Z,2.23
2022-09-17T06:32:26.084Z,1.30
2022-09-17T06:37:29.648Z,1.70
2022-09-17T06:42:31.499Z,1.40
2022-09-17T06:47:33.890Z,1.50
2022-09-17T06:52:36.805Z,1.47
2022-09-17T06:57:38.374Z,1.53
2022-09-17T07:02:40.017Z,1.40
2022-09-17T07:07:43.426Z,2.10
2022-09-17T07:12:49.671Z,1.23
2022-09-17T07:17:51.718Z,1.30
2022-09-17T07:22:58.062Z,1.47
2022-09-17T07:27:59.805Z,1.10
2022-09-17T07:33:01.837Z,1.83
2022-09-17T07:38:04.908Z,1.60
2022-09-17T07:43:06.566Z,1.17
2022-09-17T07:48:08.572Z,1.57
2022-09-17T07:53:11.573Z,1.57
2022-09-17T07:58:14.248Z,1.30
2022-09-17T08:03:16.890Z,1.43
2022-09-17T08:08:21.363Z,1.03
2022-09-17T08:13:23.596Z,1.50
2022-09-17T08:18:25.600Z,1.43
2022-09-17T08:23:30.237Z,1.40
2022-09-17T08:28:32.037Z,1.23
2022-09-17T08:33:36.941Z,1.80
2022-09-17T08:38:40.508Z,1.27
2022-09-17T08:43:50.052Z,1.00
2022-09-17T08:49:01.470Z,1.43
2022-09-17T08:54:13.123Z,1.50
2022-09-17T08:59:23.934Z,0.97
2022-09-17T09:04:57.044Z,1.87
2022-09-17T09:10:10.643Z,1.07
2022-09-17T09:15:25.226Z,0.93
2022-09-17T09:20:31.065Z,1.20
2022-09-17T09:25:41.109Z,1.13
2022-09-17T09:30:55.530Z,0.80
2022-09-17T09:35:57.387Z,1.50
2022-09-17T09:41:09.476Z,0.90
2022-09-17T09:46:29.327Z,1.10
2022-09-17T09:51:40.670Z,1.20
2022-09-17T09:56:54.116Z,0.90
2022-09-17T10:01:55.847Z,0.80
2022-09-17T10:07:02.535Z,0.93
2022-09-17T10:12:17.483Z,0.87
2022-09-17T10:17:23.683Z,1.00
2022-09-17T10:22:30.494Z,1.10
2022-09-17T10:27:34.637Z,1.00
2022-09-17T10:32:36.360Z,0.83
2022-09-17T10:37:46.751Z,0.80
2022-09-17T10:42:51.575Z,1.00
2022-09-17T10:47:55.370Z,1.10
2022-09-17T10:53:01.852Z,1.30
2022-09-17T10:58:18.248Z,1.27
2022-09-17T11:03:47.473Z,1.10
2022-09-17T11:09:04.029Z,1.20
2022-09-17T11:14:20.407Z,1.03
2022-09-17T11:19:33.393Z,1.30
2022-09-17T11:25:07.571Z,2.77
2022-09-17T11:30:17.083Z,1.00
2022-09-17T11:35:23.691Z,0.97
2022-09-17T11:40:34.997Z,0.60
2022-09-17T11:45:41.202Z,0.80
2022-09-17T11:50:47.363Z,0.60
2022-09-17T11:55:54.630Z,0.60
2022-09-17T12:01:06.862Z,0.70
2022-09-17T12:06:14.530Z,0.93
2022-09-17T12:11:20.512Z,0.90
2022-09-17T12:16:27.231Z,0.93
2022-09-17T12:21:33.340Z,0.70
2022-09-17T12:26:57.171Z,0.70
2022-09-17T12:32:05.635Z,0.63
2022-09-17T12:37:15.026Z,0.70
2022-09-17T12:42:32.843Z,1.27
2022-09-17T12:47:55.640Z,0.77
2022-09-17T12:53:14.322Z,0.70
2022-09-17T12:58:29.763Z,0.90
2022-09-17T13:03:40.075Z,0.80
2022-09-17T13:09:06.553Z,0.87
2022-09-17T13:14:17.299Z,0.90
2022-09-17T13:19:30.842Z,0.77
2022-09-17T13:24:34.118Z,0.90
2022-09-17T13:29:58.284Z,1.07
2022-09-17T13:35:45.158Z,0.90
2022-09-17T13:40:47.507Z,0.90
2022-09-17T13:46:22.944Z,1.20
2022-09-17T13:51:54.318Z,0.70
2022-09-17T13:57:15.109Z,1.07
2022-09-17T14:02:35.893Z,1.10
2022-09-17T14:07:47.310Z,1.17
2022-09-17T14:12:54.126Z,1.00
2022-09-17T14:17:55.759Z,1.30
2022-09-17T14:23:00.702Z,1.10
2022-09-17T14:28:09.643Z,0.97
2022-09-17T14:33:16.946Z,0.60
2022-09-17T14:38:23.417Z,0.80
2022-09-17T14:43:37.814Z,0.70
2022-09-17T14:48:39.488Z,0.70
2022-09-17T14:53:42.750Z,0.60
2022-09-17T14:58:50.885Z,0.30
2022-09-17T15:04:20.441Z,0.27
2022-09-17T15:09:26.177Z,0.50
2022-09-17T15:14:29.231Z,0.30
2022-09-17T15:19:35.130Z,0.30
2022-09-17T15:24:44.305Z,0.40
2022-09-17T15:29:51.419Z,0.43
2022-09-17T15:35:19.827Z,0.30
2022-09-17T15:40:28.409Z,0.67
2022-09-17T15:45:31.641Z,0.67
2022-09-17T15:50:34.962Z,0.40
2022-09-17T15:55:39.595Z,0.27
2022-09-17T16:00:41.209Z,0.30
2022-09-17T16:05:47.086Z,0.60
2022-09-17T16:10:50.999Z,0.60
2022-09-17T16:15:52.633Z,0.83
2022-09-17T16:20:54.705Z,0.40
2022-09-17T16:25:58.069Z,0.40
2022-09-17T16:31:00.411Z,0.40
2022-09-17T16:36:02.393Z,0.40
2022-09-17T16:41:06.500Z,0.40
2022-09-17T16:46:10.125Z,0.40
2022-09-17T16:51:13.801Z,1.07
2022-09-17T16:56:16.772Z,0.37
2022-09-17T17:01:18.455Z,0.50
2022-09-17T17:06:22.364Z,1.53
2022-09-17T17:11:25.816Z,0.67
2022-09-17T17:16:27.513Z,0.77
2022-09-17T17:21:29.112Z,4.60
2022-09-17T17:26:32.309Z,1.80
2022-09-17T17:31:33.958Z,1.23
2022-09-17T17:36:35.633Z,1.60
2022-09-17T17:41:39.054Z,0.93
2022-09-17T17:46:41.038Z,0.80
2022-09-17T17:51:42.713Z,0.60
2022-09-17T17:56:45.825Z,0.73
2022-09-17T18:01:47.555Z,0.60
2022-09-17T18:06:49.870Z,0.63
2022-09-17T18:11:52.995Z,0.70
2022-09-17T18:16:54.793Z,0.60
2022-09-17T18:21:56.601Z,1.23
2022-09-17T18:26:59.552Z,0.80
2022-09-17T18:32:01.454Z,0.47
2022-09-17T18:37:03.153Z,0.90
2022-09-17T18:42:06.594Z,0.70
2022-09-17T18:47:08.288Z,0.70
2022-09-17T18:52:10.012Z,0.80
2022-09-17T18:57:13.549Z,0.77
2022-09-17T19:02:15.208Z,1.03
2022-09-17T19:07:17.118Z,0.83
2022-09-17T19:12:20.318Z,1.00
2022-09-17T19:17:21.935Z,0.90
2022-09-17T19:22:24.024Z,1.03
2022-09-17T19:27:27.405Z,1.03
2022-09-17T19:32:30.463Z,1.13
2022-09-17T19:37:32.396Z,1.70
2022-09-17T19:42:35.514Z,1.73
2022-09-17T19:47:37.235Z,1.50
2022-09-17T19:52:40.444Z,1.23
2022-09-17T19:57:43.933Z,2.67
2022-09-17T20:02:45.590Z,1.60
2022-09-17T20:07:47.612Z,2.10
2022-09-17T20:12:50.646Z,2.27
2022-09-17T20:17:52.353Z,1.80
2022-09-17T20:22:54.216Z,1.97
2022-09-17T20:27:57.346Z,5.27
2022-09-17T20:32:58.978Z,14.23
2022-09-17T20:43:23.969Z,18.80
2022-09-17T20:48:25.637Z,16.77
2022-09-17T20:53:28.766Z,9.83
2022-09-17T20:58:33.510Z,6.33
2022-09-17T21:03:35.446Z,3.93
2022-09-17T21:08:37.378Z,2.77
2022-09-17T21:13:41.353Z,2.47
2022-09-17T21:18:43.988Z,2.03
2022-09-17T21:23:45.708Z,1.90
2022-09-17T21:28:50.643Z,1.90
2022-09-17T21:33:54.349Z,1.50
2022-09-17T21:38:57.669Z,1.87
2022-09-17T21:44:00.893Z,1.70
2022-09-17T21:49:03.891Z,1.30
2022-09-17T21:54:07.343Z,2.00
2022-09-17T21:59:13.690Z,1.57
2022-09-17T22:04:17.464Z,1.90
2022-09-17T22:09:21.249Z,1.70
2022-09-17T22:14:24.920Z,2.10
2022-09-17T22:19:26.736Z,1.57
2022-09-17T22:24:28.524Z,1.60
2022-09-17T22:29:31.838Z,1.40
2022-09-17T22:34:33.608Z,1.40
2022-09-17T22:39:35.476Z,1.67
2022-09-17T22:44:38.547Z,1.60
2022-09-17T22:49:40.218Z,2.13
2022-09-17T22:54:41.882Z,1.80
2022-09-17T22:59:44.852Z,1.97
2022-09-17T23:04:46.499Z,1.40
2022-09-17T23:09:48.572Z,2.17
2022-09-17T23:14:51.778Z,1.77
2022-09-17T23:19:53.918Z,1.73
2022-09-17T23:24:55.628Z,1.70
2022-09-17T23:29:58.753Z,1.60
2022-09-17T23:35:00.520Z,1.30
2022-09-17T23:40:05.912Z,1.60
2022-09-17T23:45:09.598Z,1.73
2022-09-17T23:50:11.627Z,1.20
2022-09-17T23:55:13.351Z,1.30
